createdAt,value
2022-10-30T00:03:42.335Z,12.16
2022-10-30T00:09:22.286Z,12.28
2022-10-30T00:15:02.297Z,12.31
2022-10-30T00:20:42.329Z,12.27
2022-10-30T00:26:22.304Z,12.23
2022-10-30T00:32:02.357Z,12.26
2022-10-30T00:37:42.338Z,12.29
2022-10-30T00:43:44.342Z,12.30
2022-10-30T00:49:29.281Z,12.30
2022-10-30T00:55:11.316Z,12.28
2022-10-30T01:00:53.372Z,12.27
2022-10-30T01:06:42.317Z,12.30
2022-10-30T01:12:23.310Z,12.36
2022-10-30T01:18:24.313Z,12.39
2022-10-30T01:24:26.344Z,12.37
2022-10-30T01:30:26.398Z,12.36
2022-10-30T01:36:19.789Z,12.38
2022-10-30T01:42:01.337Z,12.43
2022-10-30T01:47:52.331Z,12.42
2022-10-30T01:53:56.373Z,12.42
2022-10-30T01:59:40.346Z,12.43
2022-10-30T02:05:22.360Z,12.45
2022-10-30T02:11:04.389Z,12.39
2022-10-30T02:16:50.368Z,12.37
2022-10-30T02:22:31.451Z,12.40
2022-10-30T02:28:11.359Z,12.47
2022-10-30T02:33:51.396Z,12.47
2022-10-30T02:39:31.366Z,12.49
2022-10-30T02:45:11.345Z,12.46
2022-10-30T02:50:51.428Z,12.39
2022-10-30T02:56:31.402Z,12.33
2022-10-30T03:02:11.630Z,12.31
2022-10-30T03:07:51.383Z,12.36
2022-10-30T03:13:31.429Z,12.41
2022-10-30T03:19:11.421Z,12.40
2022-10-30T03:24:51.378Z,12.35
2022-10-30T03:30:31.401Z,12.26
2022-10-30T03:36:11.431Z,12.14
2022-10-30T03:41:51.428Z,12.03
2022-10-30T03:47:31.444Z,11.96
2022-10-30T03:53:11.449Z,11.95
2022-10-30T03:58:51.444Z,12.00
2022-10-30T04:04:31.392Z,11.97
2022-10-30T04:10:21.139Z,11.98
2022-10-30T04:16:04.471Z,12.04
2022-10-30T04:21:44.441Z,12.09
2022-10-30T04:27:24.430Z,12.09
2022-10-30T04:33:05.426Z,12.10
2022-10-30T04:38:45.444Z,12.16
2022-10-30T04:44:25.465Z,12.19
2022-10-30T04:50:05.489Z,12.20
2022-10-30T04:55:46.450Z,12.25
2022-10-30T05:01:26.548Z,12.28
2022-10-30T05:07:07.502Z,12.31
2022-10-30T05:12:47.459Z,12.26
2022-10-30T05:18:27.502Z,12.21
2022-10-30T05:24:08.497Z,12.16
2022-10-30T05:29:49.477Z,12.12
2022-10-30T05:35:29.500Z,12.08
2022-10-30T05:41:09.550Z,12.10
2022-10-30T05:46:49.543Z,12.13
2022-10-30T05:52:31.446Z,12.12
2022-10-30T05:58:15.616Z,12.15
2022-10-30T06:03:55.529Z,12.24
2022-10-30T06:09:35.538Z,12.34
2022-10-30T06:15:24.523Z,12.41
2022-10-30T06:21:04.497Z,12.50
2022-10-30T06:26:53.515Z,12.63
2022-10-30T06:32:33.551Z,12.74
2022-10-30T06:38:15.516Z,12.87
2022-10-30T06:43:55.499Z,13.02
2022-10-30T06:49:37.501Z,13.18
2022-10-30T06:55:17.542Z,13.33
2022-10-30T07:01:12.607Z,13.39
2022-10-30T07:07:15.567Z,13.54
2022-10-30T07:13:11.540Z,13.71
2022-10-30T07:19:02.091Z,13.87
2022-10-30T07:24:44.562Z,14.03
2022-10-30T07:30:34.546Z,14.08
2022-10-30T07:36:46.548Z,14.06
2022-10-30T07:42:45.579Z,14.15
2022-10-30T07:48:44.777Z,14.29
2022-10-30T07:54:35.558Z,14.38
2022-10-30T08:00:32.582Z,14.54
2022-10-30T08:06:26.266Z,14.77
2022-10-30T08:12:06.677Z,15.07
2022-10-30T08:17:46.574Z,15.54
2022-10-30T08:23:28.584Z,16.12
2022-10-30T08:29:13.583Z,16.71
2022-10-30T08:34:53.623Z,17.05
2022-10-30T08:40:33.621Z,17.04
2022-10-30T08:46:14.725Z,17.04
2022-10-30T08:51:56.623Z,17.05
2022-10-30T08:57:36.734Z,17.04
2022-10-30T09:03:16.626Z,17.07
2022-10-30T09:09:15.671Z,17.18
2022-10-30T09:14:58.622Z,17.37
2022-10-30T09:20:45.635Z,17.56
2022-10-30T09:26:23.641Z,17.61
2022-10-30T09:32:24.680Z,17.44
2022-10-30T09:38:10.697Z,17.21
2022-10-30T09:44:22.850Z,17.33
2022-10-30T09:50:34.490Z,18.07
2022-10-30T09:56:30.116Z,19.10
2022-10-30T10:02:17.765Z,20.10
2022-10-30T10:08:58.256Z,21.10
2022-10-30T10:14:39.622Z,22.04
2022-10-30T10:20:33.739Z,22.57
2022-10-30T10:26:21.672Z,22.12
2022-10-30T10:32:40.899Z,21.96
2022-10-30T10:38:26.716Z,22.27
2022-10-30T10:44:29.682Z,21.64
2022-10-30T10:50:28.677Z,21.06
2022-10-30T10:56:11.672Z,20.41
2022-10-30T11:01:54.811Z,19.89
2022-10-30T11:07:37.671Z,19.51
2022-10-30T11:13:18.711Z,19.51
2022-10-30T11:19:00.711Z,19.68
2022-10-30T11:24:45.703Z,19.97
2022-10-30T11:30:35.762Z,20.23
2022-10-30T11:36:24.782Z,20.46
2022-10-30T11:42:17.693Z,20.60
2022-10-30T11:48:02.473Z,20.70
2022-10-30T11:53:46.691Z,20.67
2022-10-30T11:59:34.706Z,20.53
2022-10-30T12:05:16.772Z,20.55
2022-10-30T12:10:59.703Z,20.41
2022-10-30T12:16:40.722Z,19.94
2022-10-30T12:22:20.773Z,20.04
2022-10-30T12:28:00.762Z,19.82
2022-10-30T12:33:45.759Z,19.29
2022-10-30T12:39:31.742Z,18.73
2022-10-30T12:45:25.756Z,18.25
2022-10-30T12:51:21.227Z,17.82
2022-10-30T12:57:18.756Z,17.34
2022-10-30T13:03:09.736Z,17.00
2022-10-30T13:08:51.185Z,16.66
2022-10-30T13:14:35.820Z,16.45
2022-10-30T13:20:38.798Z,16.32
2022-10-30T13:26:47.748Z,16.26
2022-10-30T13:32:44.829Z,16.19
2022-10-30T13:38:38.871Z,16.05
2022-10-30T13:44:31.795Z,15.88
2022-10-30T13:50:27.793Z,15.74
2022-10-30T13:56:08.772Z,15.67
2022-10-30T14:01:56.413Z,15.66
2022-10-30T14:07:46.839Z,15.54
2022-10-30T14:13:17.523Z,15.35
2022-10-30T14:18:47.612Z,15.16
2022-10-30T14:24:04.387Z,14.93
2022-10-30T14:29:37.219Z,14.76
2022-10-30T14:34:44.391Z,14.62
2022-10-30T14:39:51.573Z,14.47
2022-10-30T14:45:14.467Z,14.34
2022-10-30T14:50:37.975Z,14.21
2022-10-30T14:55:55.749Z,14.10
2022-10-30T15:01:44.257Z,14.04
2022-10-30T15:06:59.510Z,13.94
2022-10-30T15:12:20.977Z,13.83
2022-10-30T15:17:31.879Z,13.71
2022-10-30T15:22:38.286Z,13.51
2022-10-30T15:27:47.484Z,13.28
2022-10-30T15:32:53.480Z,13.11
2022-10-30T15:38:05.190Z,13.01
2022-10-30T15:43:15.874Z,12.96
2022-10-30T15:48:27.262Z,12.99
2022-10-30T15:53:40.231Z,13.00
2022-10-30T15:58:54.364Z,12.97
2022-10-30T16:04:00.862Z,12.89
2022-10-30T16:09:14.219Z,12.80
2022-10-30T16:14:24.439Z,12.73
2022-10-30T16:19:38.318Z,12.71
2022-10-30T16:24:45.599Z,12.70
2022-10-30T16:29:53.770Z,12.67
2022-10-30T16:35:02.894Z,12.66
2022-10-30T16:40:15.232Z,12.64
2022-10-30T16:45:49.376Z,12.63
2022-10-30T16:51:00.857Z,12.69
2022-10-30T16:56:19.597Z,12.62
2022-10-30T17:01:28.633Z,12.51
2022-10-30T17:06:40.547Z,12.37
2022-10-30T17:12:01.765Z,12.21
2022-10-30T17:17:23.542Z,12.03
2022-10-30T17:22:31.917Z,11.88
2022-10-30T17:27:46.799Z,11.83
2022-10-30T17:32:56.048Z,11.83
2022-10-30T17:38:03.076Z,11.81
2022-10-30T17:43:11.369Z,11.71
2022-10-30T17:48:21.452Z,11.55
2022-10-30T17:53:28.657Z,11.42
2022-10-30T17:58:34.590Z,11.38
2022-10-30T18:03:40.968Z,11.30
2022-10-30T18:08:50.565Z,11.22
2022-10-30T18:13:57.865Z,11.17
2022-10-30T18:19:03.938Z,11.14
2022-10-30T18:24:14.693Z,11.23
2022-10-30T18:29:48.554Z,11.24
2022-10-30T18:34:54.806Z,11.11
2022-10-30T18:40:00.791Z,11.02
2022-10-30T18:45:19.728Z,10.91
2022-10-30T18:50:27.343Z,10.81
2022-10-30T18:55:37.372Z,10.82
2022-10-30T19:01:10.708Z,10.80
2022-10-30T19:06:13.689Z,10.78
2022-10-30T19:11:24.648Z,10.77
2022-10-30T19:16:32.169Z,10.76
2022-10-30T19:21:38.348Z,10.74
2022-10-30T19:26:44.827Z,10.69
2022-10-30T19:31:50.880Z,10.63
2022-10-30T19:36:56.809Z,10.55
2022-10-30T19:42:02.666Z,10.56
2022-10-30T19:47:10.434Z,10.60
2022-10-30T19:52:16.505Z,10.50
2022-10-30T19:57:22.502Z,10.40
2022-10-30T20:02:28.733Z,10.30
2022-10-30T20:07:34.549Z,10.21
2022-10-30T20:12:40.956Z,10.19
2022-10-30T20:17:47.599Z,10.20
2022-10-30T20:22:54.852Z,10.17
2022-10-30T20:28:05.841Z,10.23
2022-10-30T20:33:13.913Z,10.24
2022-10-30T20:38:21.937Z,10.14
2022-10-30T20:43:31.958Z,9.91
2022-10-30T20:48:38.085Z,9.76
2022-10-30T20:53:44.807Z,9.67
2022-10-30T20:58:53.862Z,9.48
2022-10-30T21:04:01.655Z,9.37
2022-10-30T21:09:08.179Z,9.18
2022-10-30T21:14:14.073Z,9.01
2022-10-30T21:19:20.000Z,8.89
2022-10-30T21:24:26.697Z,8.76
2022-10-30T21:29:35.150Z,8.64
2022-10-30T21:34:41.437Z,8.71
2022-10-30T21:39:47.456Z,8.72
2022-10-30T21:44:53.465Z,8.57
2022-10-30T21:49:59.342Z,8.57
2022-10-30T21:55:06.325Z,8.49
2022-10-30T22:00:14.875Z,8.39
2022-10-30T22:05:20.819Z,8.33
2022-10-30T22:10:27.695Z,8.21
2022-10-30T22:15:33.738Z,8.15
2022-10-30T22:20:39.642Z,8.14
2022-10-30T22:25:53.446Z,8.17
2022-10-30T22:31:05.311Z,8.19
2022-10-30T22:36:16.099Z,8.12
2022-10-30T22:41:24.275Z,8.06
2022-10-30T22:46:31.512Z,8.14
2022-10-30T22:51:39.539Z,8.20
2022-10-30T22:56:45.436Z,8.04
2022-10-30T23:01:51.383Z,8.04
2022-10-30T23:06:57.487Z,8.10
2022-10-30T23:12:03.814Z,8.12
2022-10-30T23:17:10.194Z,8.10
2022-10-30T23:22:16.121Z,8.08
2022-10-30T23:27:22.493Z,8.06
2022-10-30T23:32:28.669Z,8.06
2022-10-30T23:37:34.737Z,8.00
2022-10-30T23:42:40.777Z,7.86
2022-10-30T23:47:46.915Z,7.70
2022-10-30T23:52:52.997Z,7.54
2022-10-30T23:57:59.286Z,7.41
